createdAt,value
2017-10-29T00:00:00.075Z,2.08
2017-10-29T00:01:07.229Z,2.17
2017-10-29T00:02:13.525Z,2.80
2017-10-29T00:03:19.714Z,2.08
2017-10-29T00:04:26.922Z,2.17
2017-10-29T00:05:34.451Z,2.10
2017-10-29T00:06:41.822Z,2.37
2017-10-29T00:07:50.236Z,1.95
2017-10-29T00:08:57.827Z,2.03
2017-10-29T00:10:05.147Z,2.10
2017-10-29T00:11:11.157Z,1.58
2017-10-29T00:12:17.553Z,1.70
2017-10-29T00:13:24.686Z,1.83
2017-10-29T00:14:32.604Z,1.95
2017-10-29T00:15:38.703Z,2.00
2017-10-29T00:16:46.964Z,1.70
2017-10-29T00:17:53.833Z,1.70
2017-10-29T00:18:59.977Z,1.50
2017-10-29T00:20:06.066Z,1.40
2017-10-29T00:21:12.126Z,1.60
2017-10-29T00:22:18.649Z,1.67
2017-10-29T00:23:24.787Z,2.85
2017-10-29T00:24:31.325Z,2.40
2017-10-29T00:25:38.105Z,1.62
2017-10-29T00:26:44.231Z,1.30
2017-10-29T00:27:52.332Z,1.40
2017-10-29T00:28:58.492Z,1.33
2017-10-29T00:30:04.145Z,1.87
2017-10-29T00:31:09.965Z,3.15
2017-10-29T00:32:16.323Z,1.95
2017-10-29T00:33:22.034Z,1.40
2017-10-29T00:34:28.170Z,1.33
2017-10-29T00:35:36.586Z,2.15
2017-10-29T00:36:42.446Z,1.70
2017-10-29T00:37:49.194Z,1.37
2017-10-29T00:38:55.876Z,1.55
2017-10-29T00:40:01.981Z,1.58
2017-10-29T00:41:08.047Z,1.05
2017-10-29T00:42:14.301Z,1.75
2017-10-29T00:43:20.577Z,1.83
2017-10-29T00:44:32.913Z,1.58
2017-10-29T00:45:39.509Z,1.42
2017-10-29T00:46:45.547Z,1.50
2017-10-29T00:47:52.650Z,1.80
2017-10-29T00:49:00.101Z,1.60
2017-10-29T00:50:07.413Z,1.70
2017-10-29T00:51:14.444Z,1.30
2017-10-29T00:52:21.865Z,1.73
2017-10-29T00:53:29.309Z,1.60
2017-10-29T00:54:36.113Z,1.50
2017-10-29T00:55:42.189Z,1.30
2017-10-29T00:56:48.332Z,1.60
2017-10-29T00:57:55.316Z,2.10
2017-10-29T00:59:01.145Z,1.50
2017-10-29T01:00:06.501Z,1.65
2017-10-29T01:01:14.977Z,1.58
2017-10-29T01:02:20.970Z,1.40
2017-10-29T01:03:26.327Z,1.40
2017-10-29T01:04:34.057Z,1.30
2017-10-29T01:05:41.473Z,1.50
2017-10-29T01:06:47.222Z,1.37
2017-10-29T01:07:53.306Z,1.40
2017-10-29T01:08:59.389Z,1.25
2017-10-29T01:10:05.462Z,4.40
2017-10-29T01:11:11.445Z,1.37
2017-10-29T01:12:17.623Z,1.58
2017-10-29T01:13:25.925Z,1.30
2017-10-29T01:14:31.811Z,1.37
2017-10-29T01:15:38.635Z,1.17
2017-10-29T01:16:44.715Z,0.98
2017-10-29T01:17:50.773Z,0.70
2017-10-29T01:18:56.907Z,0.88
2017-10-29T01:20:03.351Z,1.00
2017-10-29T01:21:09.043Z,0.90
2017-10-29T01:22:15.686Z,1.35
2017-10-29T01:23:21.741Z,1.83
2017-10-29T01:24:27.454Z,0.70
2017-10-29T01:25:34.759Z,0.75
2017-10-29T01:26:42.658Z,0.70
2017-10-29T01:27:48.734Z,4.40
2017-10-29T01:28:58.295Z,1.00
2017-10-29T01:30:03.985Z,0.93
2017-10-29T01:31:10.733Z,0.80
2017-10-29T01:32:16.877Z,0.85
2017-10-29T01:33:23.818Z,0.80
2017-10-29T01:34:29.841Z,0.80
2017-10-29T01:35:35.903Z,0.60
2017-10-29T01:36:41.974Z,0.80
2017-10-29T01:37:48.919Z,0.60
2017-10-29T01:38:54.994Z,1.00
2017-10-29T01:40:01.525Z,0.68
2017-10-29T01:41:08.741Z,1.10
2017-10-29T01:42:14.800Z,0.90
2017-10-29T01:43:20.733Z,0.70
2017-10-29T01:44:26.808Z,0.93
2017-10-29T01:45:32.918Z,0.73
2017-10-29T01:46:39.197Z,1.05
2017-10-29T01:47:45.263Z,0.70
2017-10-29T01:48:51.302Z,0.75
2017-10-29T01:49:58.557Z,0.90
2017-10-29T01:51:04.774Z,0.70
2017-10-29T01:52:11.074Z,0.90
2017-10-29T01:53:17.845Z,1.20
2017-10-29T01:54:23.753Z,1.55
2017-10-29T01:55:30.723Z,0.70
2017-10-29T01:56:37.670Z,0.70
2017-10-29T01:57:43.806Z,0.55
2017-10-29T01:58:52.480Z,0.70
2017-10-29T01:59:59.020Z,1.98
2017-10-29T02:01:05.689Z,0.80
2017-10-29T02:02:11.597Z,1.00
2017-10-29T02:03:17.628Z,0.60
2017-10-29T02:04:23.773Z,0.70
2017-10-29T02:05:30.690Z,0.70
2017-10-29T02:06:37.625Z,2.95
2017-10-29T02:07:50.013Z,0.60
2017-10-29T02:08:56.974Z,1.08
2017-10-29T02:10:03.030Z,0.73
2017-10-29T02:11:09.669Z,0.60
2017-10-29T02:12:15.598Z,0.65
2017-10-29T02:13:21.440Z,0.65
2017-10-29T02:14:27.302Z,0.82
2017-10-29T02:15:33.966Z,0.85
2017-10-29T02:16:39.879Z,1.00
2017-10-29T02:17:45.767Z,0.50
2017-10-29T02:18:51.695Z,0.50
2017-10-29T02:19:58.298Z,0.50
2017-10-29T02:21:03.453Z,0.98
2017-10-29T02:22:11.362Z,0.88
2017-10-29T02:23:17.704Z,0.60
2017-10-29T02:24:23.555Z,0.50
2017-10-29T02:25:28.727Z,0.50
2017-10-29T02:26:34.569Z,0.60
2017-10-29T02:27:41.142Z,0.50
2017-10-29T02:28:48.478Z,0.60
2017-10-29T02:29:54.388Z,0.70
2017-10-29T02:31:00.744Z,0.85
2017-10-29T02:32:08.323Z,0.55
2017-10-29T02:33:14.618Z,2.47
2017-10-29T02:34:21.738Z,0.50
2017-10-29T02:35:30.420Z,0.70
2017-10-29T02:36:36.280Z,1.02
2017-10-29T02:37:42.218Z,0.40
2017-10-29T02:38:48.132Z,0.50
2017-10-29T02:39:54.884Z,0.70
2017-10-29T02:41:00.726Z,0.73
2017-10-29T02:42:06.565Z,1.45
2017-10-29T02:43:12.469Z,0.80
2017-10-29T02:44:18.397Z,0.60
2017-10-29T02:45:24.258Z,1.00
2017-10-29T02:46:30.451Z,1.05
2017-10-29T02:47:36.818Z,0.55
2017-10-29T02:48:46.645Z,0.77
2017-10-29T02:49:54.669Z,0.70
2017-10-29T02:51:00.610Z,0.60
2017-10-29T02:52:06.896Z,0.60
2017-10-29T02:53:14.883Z,0.90
2017-10-29T02:54:21.490Z,0.90
2017-10-29T02:55:28.260Z,0.60
2017-10-29T02:56:34.093Z,1.17
2017-10-29T02:57:40.090Z,0.50
2017-10-29T02:58:45.994Z,0.60
2017-10-29T02:59:51.862Z,0.65
2017-10-29T03:00:57.821Z,0.93
2017-10-29T03:02:03.713Z,1.95
2017-10-29T03:03:09.710Z,0.90
2017-10-29T03:04:15.549Z,0.70
2017-10-29T03:05:24.291Z,0.95
2017-10-29T03:06:31.069Z,0.77
2017-10-29T03:07:37.817Z,0.60
2017-10-29T03:08:44.096Z,3.30
2017-10-29T03:09:49.984Z,1.23
2017-10-29T03:10:55.926Z,0.60
2017-10-29T03:12:02.167Z,1.85
2017-10-29T03:13:08.898Z,0.65
2017-10-29T03:14:14.791Z,0.98
2017-10-29T03:15:21.547Z,1.15
2017-10-29T03:16:27.431Z,1.65
2017-10-29T03:17:32.950Z,0.80
2017-10-29T03:18:38.877Z,1.10
2017-10-29T03:19:44.745Z,2.17
2017-10-29T03:20:50.653Z,4.15
2017-10-29T03:21:56.555Z,4.62
2017-10-29T03:23:02.945Z,2.37
2017-10-29T03:24:08.843Z,2.53
2017-10-29T03:25:14.752Z,3.17
2017-10-29T03:26:20.624Z,3.70
2017-10-29T03:27:26.482Z,2.95
2017-10-29T03:28:32.069Z,0.85
2017-10-29T03:29:38.005Z,1.98
2017-10-29T03:30:43.367Z,0.88
2017-10-29T03:31:49.262Z,2.72
2017-10-29T03:32:56.086Z,1.23
2017-10-29T03:34:02.509Z,0.90
2017-10-29T03:35:10.906Z,0.68
2017-10-29T03:36:16.800Z,1.33
2017-10-29T03:37:22.691Z,0.77
2017-10-29T03:38:31.786Z,1.00
2017-10-29T03:39:38.385Z,0.80
2017-10-29T03:40:44.261Z,0.68
2017-10-29T03:41:50.166Z,0.80
2017-10-29T03:42:56.035Z,0.70
2017-10-29T03:44:01.969Z,0.68
2017-10-29T03:45:08.313Z,1.20
2017-10-29T03:46:14.257Z,0.95
2017-10-29T03:47:20.117Z,0.80
2017-10-29T03:48:26.943Z,0.57
2017-10-29T03:49:32.783Z,0.60
2017-10-29T03:50:38.661Z,1.20
2017-10-29T03:51:44.549Z,0.50
2017-10-29T03:52:50.825Z,0.70
2017-10-29T03:53:57.075Z,0.50
2017-10-29T03:55:02.890Z,2.05
2017-10-29T03:56:08.789Z,1.25
2017-10-29T03:57:14.687Z,0.50
2017-10-29T03:58:20.552Z,1.30
2017-10-29T03:59:26.381Z,0.70
2017-10-29T04:00:32.211Z,1.05
2017-10-29T04:01:38.091Z,0.98
2017-10-29T04:02:44.006Z,0.70
2017-10-29T04:03:49.910Z,0.75
2017-10-29T04:04:55.901Z,1.23
2017-10-29T04:06:02.177Z,1.12
2017-10-29T04:07:08.015Z,1.75
2017-10-29T04:08:14.061Z,0.85
2017-10-29T04:09:19.932Z,1.10
2017-10-29T04:10:25.826Z,1.27
2017-10-29T04:11:31.725Z,2.58
2017-10-29T04:12:37.940Z,4.10
2017-10-29T04:13:45.662Z,3.65
2017-10-29T04:14:51.490Z,1.95
2017-10-29T04:15:57.397Z,1.95
2017-10-29T04:17:03.296Z,3.28
2017-10-29T04:18:09.152Z,2.40
2017-10-29T04:19:15.048Z,3.97
2017-10-29T04:20:20.953Z,1.92
2017-10-29T04:21:26.869Z,4.72
2017-10-29T04:22:32.010Z,3.42
2017-10-29T04:23:37.896Z,5.22
2017-10-29T04:24:46.833Z,2.83
2017-10-29T04:25:54.195Z,4.85
2017-10-29T04:27:00.968Z,4.70
2017-10-29T04:28:12.498Z,2.08
2017-10-29T04:29:20.410Z,3.47
2017-10-29T04:30:28.040Z,6.75
2017-10-29T04:31:35.039Z,8.27
2017-10-29T04:32:42.497Z,1.85
2017-10-29T04:34:01.593Z,5.03
2017-10-29T04:35:08.595Z,5.75
2017-10-29T04:36:15.950Z,7.22
2017-10-29T04:37:24.650Z,6.25
2017-10-29T04:38:31.285Z,7.53
2017-10-29T04:39:38.351Z,4.00
2017-10-29T04:40:47.107Z,4.50
2017-10-29T04:41:54.266Z,4.15
2017-10-29T04:43:03.097Z,2.53
2017-10-29T04:44:09.604Z,5.90
2017-10-29T04:45:16.320Z,2.70
2017-10-29T04:46:23.609Z,4.35
2017-10-29T04:47:30.318Z,2.90
2017-10-29T04:48:37.718Z,6.37
2017-10-29T04:49:44.543Z,4.07
2017-10-29T04:50:52.507Z,3.45
2017-10-29T04:51:59.395Z,7.07
2017-10-29T04:53:10.466Z,5.40
2017-10-29T04:54:17.539Z,7.35
2017-10-29T04:55:24.442Z,5.97
2017-10-29T04:56:31.483Z,5.45
2017-10-29T04:57:38.317Z,10.40
2017-10-29T04:58:45.143Z,6.30
2017-10-29T04:59:52.111Z,4.75
2017-10-29T05:00:59.708Z,4.47
2017-10-29T05:02:06.996Z,3.05
2017-10-29T05:03:13.826Z,3.80
2017-10-29T05:04:21.747Z,3.17
2017-10-29T05:05:29.324Z,4.97
2017-10-29T05:06:36.151Z,5.93
2017-10-29T05:07:42.945Z,7.87
2017-10-29T05:08:50.854Z,7.03
2017-10-29T05:09:57.831Z,6.12
2017-10-29T05:11:05.662Z,6.30
2017-10-29T05:12:13.596Z,2.78
2017-10-29T05:13:22.792Z,7.10
2017-10-29T05:14:31.501Z,7.12
2017-10-29T05:15:38.392Z,6.07
2017-10-29T05:16:45.272Z,9.50
2017-10-29T05:17:53.983Z,8.35
2017-10-29T05:19:01.075Z,7.50
2017-10-29T05:20:07.695Z,5.43
2017-10-29T05:21:15.300Z,5.28
2017-10-29T05:22:23.099Z,5.82
2017-10-29T05:23:32.750Z,6.97
2017-10-29T05:24:41.410Z,8.57
2017-10-29T05:25:51.081Z,7.78
2017-10-29T05:26:57.986Z,10.60
2017-10-29T05:28:04.716Z,7.43
2017-10-29T05:29:12.244Z,9.18
2017-10-29T05:30:19.838Z,10.60
2017-10-29T05:31:28.449Z,10.60
2017-10-29T05:32:35.009Z,6.53
2017-10-29T05:33:42.701Z,5.60
2017-10-29T05:34:50.834Z,7.30
2017-10-29T05:35:56.715Z,8.88
2017-10-29T05:37:03.883Z,8.10
2017-10-29T05:38:13.002Z,7.35
2017-10-29T05:39:18.888Z,6.50
2017-10-29T05:40:25.456Z,13.07
2017-10-29T05:41:31.318Z,12.65
2017-10-29T05:42:37.373Z,11.45
2017-10-29T05:43:44.061Z,12.57
2017-10-29T05:44:49.540Z,11.88
2017-10-29T05:45:55.241Z,15.20
2017-10-29T05:47:01.437Z,11.27
2017-10-29T05:48:07.345Z,8.85
2017-10-29T05:49:15.401Z,16.50
2017-10-29T05:50:22.222Z,15.07
2017-10-29T05:51:30.874Z,12.25
2017-10-29T05:52:36.869Z,9.88
2017-10-29T05:53:43.112Z,7.90
2017-10-29T05:54:49.174Z,9.95
2017-10-29T05:55:57.077Z,9.73
2017-10-29T05:57:02.967Z,9.32
2017-10-29T05:58:13.162Z,11.23
2017-10-29T05:59:19.495Z,16.10
2017-10-29T06:00:26.005Z,10.02
2017-10-29T06:01:32.338Z,10.65
2017-10-29T06:02:38.298Z,17.75
2017-10-29T06:03:44.321Z,13.77
2017-10-29T06:04:51.223Z,10.80
2017-10-29T06:05:57.340Z,12.73
2017-10-29T06:07:03.468Z,12.50
2017-10-29T06:08:09.086Z,17.87
2017-10-29T06:09:15.564Z,9.75
2017-10-29T06:10:22.201Z,10.82
2017-10-29T06:11:28.665Z,10.00
2017-10-29T06:12:34.172Z,13.77
2017-10-29T06:13:40.108Z,11.70
2017-10-29T06:14:46.588Z,12.32
2017-10-29T06:15:53.679Z,13.30
2017-10-29T06:16:59.947Z,13.62
2017-10-29T06:18:05.516Z,10.23
2017-10-29T06:19:11.798Z,9.48
2017-10-29T06:20:19.084Z,9.35
2017-10-29T06:21:24.891Z,15.25
2017-10-29T06:22:31.668Z,9.23
2017-10-29T06:23:37.888Z,11.68
2017-10-29T06:24:43.834Z,9.98
2017-10-29T06:25:49.481Z,12.40
2017-10-29T06:26:55.506Z,24.10
2017-10-29T06:28:03.364Z,15.45
2017-10-29T06:29:12.363Z,13.30
2017-10-29T06:30:17.733Z,11.27
2017-10-29T06:31:27.401Z,12.13
2017-10-29T06:32:33.016Z,11.45
2017-10-29T06:33:38.680Z,12.85
2017-10-29T06:34:44.394Z,17.00
2017-10-29T06:35:50.464Z,11.52
2017-10-29T06:36:56.400Z,11.88
2017-10-29T06:38:02.374Z,13.65
2017-10-29T06:39:08.146Z,17.83
2017-10-29T06:40:14.226Z,16.08
2017-10-29T06:41:20.901Z,14.00
2017-10-29T06:42:27.420Z,10.30
2017-10-29T06:43:33.321Z,9.52
2017-10-29T06:44:41.255Z,12.75
2017-10-29T06:45:47.658Z,9.88
2017-10-29T06:46:53.913Z,9.82
2017-10-29T06:48:01.315Z,12.27
2017-10-29T06:49:07.414Z,9.30
2017-10-29T06:50:15.630Z,9.40
2017-10-29T06:51:22.371Z,14.27
2017-10-29T06:52:28.233Z,8.30
2017-10-29T06:53:34.997Z,12.27
2017-10-29T06:54:41.318Z,9.93
2017-10-29T06:55:47.661Z,8.10
2017-10-29T06:56:53.638Z,12.27
2017-10-29T06:57:59.222Z,11.43
2017-10-29T06:59:05.530Z,8.95
2017-10-29T07:00:11.887Z,11.27
2017-10-29T07:01:17.496Z,13.60
2017-10-29T07:02:23.713Z,10.00
2017-10-29T07:03:32.838Z,14.07
2017-10-29T07:04:43.027Z,10.23
2017-10-29T07:05:49.508Z,10.68
2017-10-29T07:06:56.318Z,10.90
2017-10-29T07:08:02.295Z,11.48
2017-10-29T07:09:08.466Z,11.48
2017-10-29T07:10:15.300Z,16.70
2017-10-29T07:11:23.896Z,11.10
2017-10-29T07:12:30.433Z,12.10
2017-10-29T07:13:36.870Z,12.63
2017-10-29T07:14:45.869Z,13.60
2017-10-29T07:15:52.614Z,11.32
2017-10-29T07:17:02.041Z,12.63
2017-10-29T07:18:09.163Z,13.52
2017-10-29T07:19:16.005Z,12.20
2017-10-29T07:20:23.219Z,12.98
2017-10-29T07:21:30.012Z,8.70
2017-10-29T07:22:37.657Z,11.27
2017-10-29T07:23:44.306Z,14.30
2017-10-29T07:24:53.219Z,11.20
2017-10-29T07:25:58.926Z,14.52
2017-10-29T07:27:04.815Z,18.12
2017-10-29T07:28:10.780Z,12.77
2017-10-29T07:29:18.851Z,15.35
2017-10-29T07:30:27.054Z,10.18
2017-10-29T07:31:34.233Z,17.75
2017-10-29T07:32:43.430Z,13.10
2017-10-29T07:33:49.392Z,8.15
2017-10-29T07:34:56.087Z,11.10
2017-10-29T07:36:03.058Z,15.63
2017-10-29T07:37:10.334Z,11.75
2017-10-29T07:38:20.132Z,14.13
2017-10-29T07:39:27.718Z,8.68
2017-10-29T07:40:34.566Z,13.52
2017-10-29T07:41:41.668Z,13.90
2017-10-29T07:42:55.905Z,14.57
2017-10-29T07:44:02.970Z,15.32
2017-10-29T07:45:10.842Z,10.13
2017-10-29T07:46:18.326Z,9.63
2017-10-29T07:47:25.825Z,18.92
2017-10-29T07:48:32.141Z,12.00
2017-10-29T07:49:38.635Z,14.50
2017-10-29T07:50:46.439Z,10.77
2017-10-29T07:51:52.680Z,15.00
2017-10-29T07:52:58.811Z,11.02
2017-10-29T07:54:04.787Z,15.65
2017-10-29T07:55:12.348Z,13.60
2017-10-29T07:56:18.288Z,15.85
2017-10-29T07:57:27.202Z,15.32
2017-10-29T07:58:33.156Z,16.42
2017-10-29T07:59:39.038Z,13.73
2017-10-29T08:00:44.606Z,13.85
2017-10-29T08:01:50.547Z,12.32
2017-10-29T08:02:57.234Z,14.50
2017-10-29T08:04:04.306Z,17.02
2017-10-29T08:05:10.165Z,14.40
2017-10-29T08:06:17.095Z,13.10
2017-10-29T08:07:23.002Z,14.40
2017-10-29T08:08:28.200Z,14.65
2017-10-29T08:09:33.699Z,10.77
2017-10-29T08:10:38.888Z,12.30
2017-10-29T08:11:44.426Z,18.00
2017-10-29T08:12:50.471Z,13.30
2017-10-29T08:13:57.121Z,17.50
2017-10-29T08:15:03.165Z,12.70
2017-10-29T08:16:10.628Z,17.50
2017-10-29T08:17:17.088Z,12.90
2017-10-29T08:18:23.502Z,17.70
2017-10-29T08:19:30.217Z,11.48
2017-10-29T08:20:39.372Z,10.25
2017-10-29T08:21:45.705Z,15.38
2017-10-29T08:22:52.073Z,12.25
2017-10-29T08:23:57.944Z,11.68
2017-10-29T08:25:06.211Z,8.25
2017-10-29T08:26:12.276Z,11.80
2017-10-29T08:27:18.189Z,8.88
2017-10-29T08:28:24.221Z,11.90
2017-10-29T08:29:30.703Z,10.68
2017-10-29T08:30:37.369Z,8.98
2017-10-29T08:31:43.523Z,13.60
2017-10-29T08:32:49.714Z,11.70
2017-10-29T08:33:55.638Z,11.57
2017-10-29T08:35:01.535Z,12.93
2017-10-29T08:36:10.221Z,20.20
2017-10-29T08:37:16.180Z,13.88
2017-10-29T08:38:22.053Z,16.05
2017-10-29T08:39:29.140Z,10.70
2017-10-29T08:40:35.045Z,12.52
2017-10-29T08:41:40.913Z,10.98
2017-10-29T08:42:46.855Z,15.57
2017-10-29T08:43:53.424Z,13.35
2017-10-29T08:44:59.510Z,10.63
2017-10-29T08:46:05.408Z,19.75
2017-10-29T08:47:11.297Z,15.45
2017-10-29T08:48:17.265Z,13.20
2017-10-29T08:49:23.210Z,15.65
2017-10-29T08:50:29.275Z,14.00
2017-10-29T08:51:34.864Z,13.10
2017-10-29T08:52:41.113Z,17.65
2017-10-29T08:53:47.345Z,9.93
2017-10-29T08:54:53.859Z,11.75
2017-10-29T08:56:00.302Z,15.07
2017-10-29T08:57:06.285Z,9.95
2017-10-29T08:58:12.219Z,11.50
2017-10-29T08:59:18.279Z,7.95
2017-10-29T09:00:24.938Z,9.57
2017-10-29T09:01:30.987Z,8.02
2017-10-29T09:02:36.552Z,9.38
2017-10-29T09:03:42.236Z,5.60
2017-10-29T09:04:48.187Z,7.28
2017-10-29T09:05:54.024Z,6.47
2017-10-29T09:07:00.205Z,7.15
2017-10-29T09:08:06.119Z,3.53
2017-10-29T09:09:12.036Z,4.18
2017-10-29T09:10:19.787Z,5.37
2017-10-29T09:11:25.457Z,6.75
2017-10-29T09:12:31.371Z,6.50
2017-10-29T09:13:37.245Z,4.72
2017-10-29T09:14:43.267Z,5.18
2017-10-29T09:15:48.929Z,11.65
2017-10-29T09:16:54.849Z,6.53
2017-10-29T09:18:00.661Z,7.78
2017-10-29T09:19:06.611Z,4.72
2017-10-29T09:20:12.530Z,7.75
2017-10-29T09:21:19.173Z,9.25
2017-10-29T09:22:25.025Z,7.60
2017-10-29T09:23:33.740Z,8.63
2017-10-29T09:24:39.820Z,9.10
2017-10-29T09:25:45.688Z,11.52
2017-10-29T09:26:51.683Z,8.98
2017-10-29T09:27:57.583Z,11.43
2017-10-29T09:29:03.492Z,8.98
2017-10-29T09:30:09.768Z,9.55
2017-10-29T09:31:17.965Z,12.05
2017-10-29T09:32:24.096Z,10.55
2017-10-29T09:33:29.994Z,15.43
2017-10-29T09:34:35.911Z,11.38
2017-10-29T09:35:41.867Z,12.40
2017-10-29T09:36:49.405Z,13.68
2017-10-29T09:37:55.856Z,11.18
2017-10-29T09:39:01.895Z,13.18
2017-10-29T09:40:07.792Z,10.10
2017-10-29T09:41:13.673Z,9.23
2017-10-29T09:42:19.585Z,11.38
2017-10-29T09:43:25.445Z,13.90
2017-10-29T09:44:32.549Z,6.70
2017-10-29T09:45:39.090Z,8.68
2017-10-29T09:46:46.338Z,9.23
2017-10-29T09:47:52.348Z,9.23
2017-10-29T09:48:59.585Z,6.30
2017-10-29T09:50:05.125Z,9.57
2017-10-29T09:51:11.336Z,5.80
2017-10-29T09:52:17.262Z,7.87
2017-10-29T09:53:23.164Z,10.55
2017-10-29T09:54:29.806Z,8.82
2017-10-29T09:55:35.639Z,13.10
2017-10-29T09:56:42.066Z,8.43
2017-10-29T09:57:48.003Z,7.20
2017-10-29T09:58:53.730Z,10.23
2017-10-29T10:00:00.034Z,12.25
2017-10-29T10:01:06.973Z,7.05
2017-10-29T10:02:13.262Z,13.18
2017-10-29T10:03:18.999Z,5.75
2017-10-29T10:04:25.268Z,8.73
2017-10-29T10:05:31.103Z,13.90
2017-10-29T10:06:36.983Z,9.55
2017-10-29T10:07:44.655Z,12.55
2017-10-29T10:08:52.406Z,9.35
2017-10-29T10:09:58.351Z,10.75
2017-10-29T10:11:03.849Z,12.13
2017-10-29T10:12:09.707Z,10.85
2017-10-29T10:13:16.247Z,11.82
2017-10-29T10:14:22.142Z,10.07
2017-10-29T10:15:28.036Z,11.50
2017-10-29T10:16:34.335Z,9.95
2017-10-29T10:17:40.992Z,9.77
2017-10-29T10:18:49.986Z,10.48
2017-10-29T10:19:58.477Z,11.55
2017-10-29T10:21:04.707Z,13.27
2017-10-29T10:22:10.572Z,10.38
2017-10-29T10:23:16.619Z,10.50
2017-10-29T10:24:22.101Z,12.05
2017-10-29T10:25:30.118Z,11.27
2017-10-29T10:26:38.492Z,15.43
2017-10-29T10:27:46.089Z,11.23
2017-10-29T10:28:51.747Z,12.15
2017-10-29T10:29:58.024Z,13.30
2017-10-29T10:31:05.677Z,9.98
2017-10-29T10:32:11.566Z,7.40
2017-10-29T10:33:17.315Z,13.85
2017-10-29T10:34:23.218Z,6.78
2017-10-29T10:35:30.798Z,8.98
2017-10-29T10:36:36.903Z,11.70
2017-10-29T10:37:43.309Z,8.85
2017-10-29T10:38:49.610Z,10.00
2017-10-29T10:39:55.616Z,9.90
2017-10-29T10:41:01.493Z,12.45
2017-10-29T10:42:07.693Z,8.73
2017-10-29T10:43:13.546Z,7.93
2017-10-29T10:44:19.434Z,6.00
2017-10-29T10:45:26.094Z,7.97
2017-10-29T10:46:32.610Z,10.30
2017-10-29T10:47:38.840Z,7.32
2017-10-29T10:48:44.881Z,6.25
2017-10-29T10:49:51.828Z,7.50
2017-10-29T10:51:01.382Z,8.00
2017-10-29T10:52:08.586Z,8.23
2017-10-29T10:53:14.496Z,8.52
2017-10-29T10:54:20.316Z,9.70
2017-10-29T10:55:26.237Z,5.97
2017-10-29T10:56:32.622Z,7.75
2017-10-29T10:57:38.142Z,6.12
2017-10-29T10:58:43.993Z,5.80
2017-10-29T10:59:50.578Z,6.18
2017-10-29T11:00:56.569Z,6.80
2017-10-29T11:02:02.476Z,9.90
2017-10-29T11:03:10.667Z,6.25
2017-10-29T11:04:16.612Z,7.28
2017-10-29T11:05:22.596Z,5.30
2017-10-29T11:06:29.490Z,5.03
2017-10-29T11:07:36.395Z,8.77
2017-10-29T11:08:42.266Z,7.03
2017-10-29T11:09:48.355Z,9.82
2017-10-29T11:10:54.208Z,5.50
2017-10-29T11:12:02.921Z,6.05
2017-10-29T11:13:09.607Z,8.98
2017-10-29T11:14:16.806Z,4.90
2017-10-29T11:15:23.897Z,6.62
2017-10-29T11:16:30.105Z,6.93
2017-10-29T11:17:36.752Z,4.82
2017-10-29T11:18:44.068Z,9.05
2017-10-29T11:19:49.971Z,5.93
2017-10-29T11:20:55.893Z,6.60
2017-10-29T11:22:02.365Z,8.52
2017-10-29T11:23:09.574Z,8.48
2017-10-29T11:24:15.973Z,3.30
2017-10-29T11:25:21.913Z,5.37
2017-10-29T11:26:28.098Z,8.73
2017-10-29T11:27:34.556Z,8.05
2017-10-29T11:28:40.343Z,5.85
2017-10-29T11:29:46.672Z,6.72
2017-10-29T11:30:54.194Z,6.15
2017-10-29T11:32:00.921Z,4.05
2017-10-29T11:33:06.983Z,3.58
2017-10-29T11:34:13.050Z,5.32
2017-10-29T11:35:19.623Z,4.47
2017-10-29T11:36:25.538Z,7.87
2017-10-29T11:37:31.734Z,5.55
2017-10-29T11:38:38.212Z,5.35
2017-10-29T11:39:44.698Z,4.18
2017-10-29T11:40:51.721Z,9.85
2017-10-29T11:41:57.790Z,7.12
2017-10-29T11:43:03.943Z,6.60
2017-10-29T11:44:09.753Z,5.12
2017-10-29T11:45:16.175Z,4.32
2017-10-29T11:46:22.747Z,7.05
2017-10-29T11:47:28.750Z,7.50
2017-10-29T11:48:35.370Z,13.55
2017-10-29T11:49:43.691Z,7.37
2017-10-29T11:50:53.174Z,5.00
2017-10-29T11:52:01.094Z,10.93
2017-10-29T11:53:10.317Z,5.30
2017-10-29T11:54:19.095Z,11.88
2017-10-29T11:55:27.321Z,9.13
2017-10-29T11:56:35.280Z,8.43
2017-10-29T11:57:43.209Z,6.57
2017-10-29T11:58:50.233Z,3.90
2017-10-29T11:59:57.527Z,8.00
2017-10-29T12:01:05.156Z,9.48
2017-10-29T12:02:12.507Z,6.97
2017-10-29T12:03:21.070Z,13.02
2017-10-29T12:04:28.381Z,6.40
2017-10-29T12:05:38.005Z,4.97
2017-10-29T12:06:45.786Z,7.07
2017-10-29T12:07:53.921Z,7.55
2017-10-29T12:09:04.718Z,7.10
2017-10-29T12:10:13.843Z,9.52
2017-10-29T12:11:20.118Z,6.00
2017-10-29T12:12:28.070Z,8.18
2017-10-29T12:13:36.964Z,6.97
2017-10-29T12:14:46.847Z,8.38
2017-10-29T12:15:55.007Z,6.12
2017-10-29T12:17:11.039Z,9.35
2017-10-29T12:18:20.508Z,5.35
2017-10-29T12:19:28.648Z,9.20
2017-10-29T12:20:35.967Z,8.77
2017-10-29T12:21:44.635Z,6.22
2017-10-29T12:22:52.631Z,7.70
2017-10-29T12:23:59.248Z,8.90
2017-10-29T12:25:06.018Z,9.88
2017-10-29T12:26:16.737Z,8.68
2017-10-29T12:27:25.413Z,9.32
2017-10-29T12:28:33.999Z,6.12
2017-10-29T12:29:42.764Z,6.75
2017-10-29T12:30:52.185Z,7.62
2017-10-29T12:32:00.345Z,9.88
2017-10-29T12:33:11.180Z,7.22
2017-10-29T12:34:18.518Z,9.88
2017-10-29T12:35:28.464Z,6.65
2017-10-29T12:36:37.955Z,8.48
2017-10-29T12:37:48.282Z,5.68
2017-10-29T12:38:55.317Z,5.25
2017-10-29T12:40:03.058Z,5.97
2017-10-29T12:41:11.579Z,9.77
2017-10-29T12:42:20.656Z,7.57
2017-10-29T12:43:30.727Z,4.53
2017-10-29T12:44:39.081Z,9.25
2017-10-29T12:45:45.921Z,7.15
2017-10-29T12:46:53.217Z,10.13
2017-10-29T12:48:02.348Z,6.97
2017-10-29T12:49:11.959Z,8.73
2017-10-29T12:50:19.893Z,9.50
2017-10-29T12:51:27.972Z,7.18
2017-10-29T12:52:36.014Z,4.95
2017-10-29T12:53:44.837Z,8.00
2017-10-29T12:54:53.035Z,9.57
2017-10-29T12:56:02.342Z,6.03
2017-10-29T12:57:13.016Z,7.22
2017-10-29T12:58:21.798Z,8.85
2017-10-29T12:59:31.012Z,8.40
2017-10-29T13:00:43.244Z,11.07
2017-10-29T13:01:51.639Z,8.63
2017-10-29T13:03:00.580Z,7.75
2017-10-29T13:04:09.136Z,7.45
2017-10-29T13:05:17.738Z,7.45
2017-10-29T13:06:27.081Z,7.35
2017-10-29T13:07:34.292Z,8.50
2017-10-29T13:08:43.194Z,8.65
2017-10-29T13:09:49.881Z,8.55
2017-10-29T13:10:57.097Z,7.93
2017-10-29T13:12:06.778Z,9.82
2017-10-29T13:13:15.097Z,10.02
2017-10-29T13:14:23.189Z,9.32
2017-10-29T13:15:31.588Z,13.25
2017-10-29T13:16:40.546Z,7.12
2017-10-29T13:17:49.283Z,6.37
2017-10-29T13:18:58.339Z,5.20
2017-10-29T13:20:08.691Z,5.18
2017-10-29T13:21:16.678Z,8.13
2017-10-29T13:22:23.824Z,6.97
2017-10-29T13:23:31.474Z,6.45
2017-10-29T13:24:46.455Z,8.80
2017-10-29T13:25:55.176Z,9.80
2017-10-29T13:27:01.161Z,6.05
2017-10-29T13:28:07.413Z,7.15
2017-10-29T13:29:13.271Z,7.97
2017-10-29T13:30:19.132Z,8.00
2017-10-29T13:31:26.411Z,11.00
2017-10-29T13:32:34.886Z,6.00
2017-10-29T13:33:41.790Z,6.55
2017-10-29T13:34:48.487Z,7.97
2017-10-29T13:35:55.133Z,5.72
2017-10-29T13:37:03.203Z,5.95
2017-10-29T13:38:09.788Z,10.85
2017-10-29T13:39:16.285Z,7.50
2017-10-29T13:40:22.242Z,6.05
2017-10-29T13:41:28.534Z,7.53
2017-10-29T13:42:34.435Z,7.70
2017-10-29T13:43:41.595Z,9.05
2017-10-29T13:44:51.364Z,9.65
2017-10-29T13:45:57.257Z,10.52
2017-10-29T13:47:03.756Z,11.77
2017-10-29T13:48:10.688Z,7.53
2017-10-29T13:49:17.594Z,8.57
2017-10-29T13:50:26.186Z,14.43
2017-10-29T13:51:32.061Z,9.93
2017-10-29T13:52:37.965Z,11.23
2017-10-29T13:53:43.879Z,9.98
2017-10-29T13:54:49.761Z,15.85
2017-10-29T13:55:55.668Z,10.38
2017-10-29T13:57:01.734Z,14.35
2017-10-29T13:58:07.699Z,12.77
2017-10-29T13:59:14.683Z,8.35
2017-10-29T14:00:20.722Z,9.10
2017-10-29T14:01:26.565Z,10.73
2017-10-29T14:02:33.117Z,8.23
2017-10-29T14:03:39.085Z,6.90
2017-10-29T14:04:49.157Z,8.43
2017-10-29T14:05:55.225Z,9.02
2017-10-29T14:07:04.718Z,6.37
2017-10-29T14:08:11.200Z,9.23
2017-10-29T14:09:17.131Z,7.72
2017-10-29T14:10:25.819Z,7.35
2017-10-29T14:11:33.897Z,7.28
2017-10-29T14:12:39.807Z,12.85
2017-10-29T14:13:45.668Z,9.32
2017-10-29T14:14:53.161Z,8.07
2017-10-29T14:15:59.949Z,6.35
2017-10-29T14:17:08.432Z,8.70
2017-10-29T14:18:15.275Z,7.15
2017-10-29T14:19:21.102Z,8.23
2017-10-29T14:20:30.254Z,7.22
2017-10-29T14:21:36.276Z,8.55
2017-10-29T14:22:42.166Z,10.40
2017-10-29T14:23:53.083Z,6.95
2017-10-29T14:25:00.821Z,13.10
2017-10-29T14:26:07.772Z,8.68
2017-10-29T14:27:13.540Z,7.65
2017-10-29T14:28:19.446Z,6.93
2017-10-29T14:29:25.299Z,8.13
2017-10-29T14:30:31.148Z,12.23
2017-10-29T14:31:36.988Z,10.25
2017-10-29T14:32:42.339Z,12.00
2017-10-29T14:33:50.424Z,5.57
2017-10-29T14:34:56.363Z,7.62
2017-10-29T14:36:02.251Z,8.93
2017-10-29T14:37:08.170Z,6.25
2017-10-29T14:38:13.721Z,6.40
2017-10-29T14:39:20.271Z,9.15
2017-10-29T14:40:26.120Z,5.60
2017-10-29T14:41:35.043Z,7.43